Time;durP1;ratioP1;P1;durP2;ratioP2;P2;SDS_P1;SDS_P2;PMS_P1;PMS_P2;Temp;Humidity;BMP_temperature;BMP_pressure;BME280_temperature;BME280_humidity;BME280_pressure;Samples;Min_cycle;Max_cycle;Signal;HPM_P1;HPM_P2
2024/03/02 00:00:58;;;;;;;5.40;2.33;;;7.30;59.80;;;;;;5015214;28;20460;-66
2024/03/02 00:03:25;;;;;;;5.37;2.77;;;7.30;62.70;;;;;;5014956;28;20480;-67
2024/03/02 00:05:52;;;;;;;6.33;3.47;;;7.30;63.80;;;;;;5010103;28;20504;-66
2024/03/02 00:08:25;;;;;;;4.70;2.53;;;7.30;64.50;;;;;;4995952;28;20516;-66
2024/03/02 00:10:52;;;;;;;6.20;2.80;;;7.30;63.20;;;;;;4995508;28;20493;-66
2024/03/02 00:13:23;;;;;;;5.37;3.10;;;7.30;62.60;;;;;;5011599;28;20495;-66
2024/03/02 00:15:53;;;;;;;5.73;2.80;;;7.40;60.00;;;;;;5008397;28;20460;-66
2024/03/02 00:18:21;;;;;;;5.63;3.07;;;7.40;60.60;;;;;;5014875;28;20548;-66
2024/03/02 00:20:48;;;;;;;9.23;3.77;;;7.40;59.90;;;;;;5015230;28;20541;-67
2024/03/02 00:23:18;;;;;;;5.70;2.97;;;7.40;60.30;;;;;;5014899;28;20483;-66
2024/03/02 00:25:48;;;;;;;6.33;3.83;;;7.40;61.20;;;;;;5014693;28;20449;-67
2024/03/02 00:28:18;;;;;;;10.77;4.17;;;7.50;61.40;;;;;;4998825;28;20461;-66
2024/03/02 00:30:55;;;;;;;6.40;3.50;;;7.60;61.10;;;;;;5006806;28;20488;-66
2024/03/02 00:33:23;;;;;;;8.00;3.73;;;7.40;61.90;;;;;;5014647;28;20476;-66
2024/03/02 00:35:50;;;;;;;6.50;3.53;;;7.50;65.60;;;;;;5001779;28;20481;-66
2024/03/02 00:38:17;;;;;;;5.93;3.70;;;7.40;65.70;;;;;;5011001;28;20456;-66
2024/03/02 00:40:46;;;;;;;6.57;3.63;;;7.50;66.00;;;;;;5006814;28;20844;-66
2024/03/02 00:43:42;;;;;;;7.90;3.23;;;7.50;63.90;;;;;;5006598;28;20477;-67
2024/03/02 00:46:09;;;;;;;5.80;2.80;;;7.50;67.00;;;;;;5003025;28;20456;-66
2024/03/02 00:48:36;;;;;;;8.20;4.60;;;7.40;67.60;;;;;;4995205;28;20460;-66
2024/03/02 00:51:04;;;;;;;5.40;3.10;;;7.40;67.70;;;;;;4995010;28;20488;-67
2024/03/02 00:53:33;;;;;;;7.07;3.13;;;7.40;67.60;;;;;;5010973;28;20469;-66
2024/03/02 00:56:02;;;;;;;7.00;3.13;;;7.40;67.60;;;;;;4994335;28;20942;-66
2024/03/02 00:58:29;;;;;;;6.53;3.53;;;7.30;67.30;;;;;;4994641;28;20473;-66
2024/03/02 01:00:56;;;;;;;7.43;4.73;;;7.30;67.70;;;;;;4994694;28;20460;-66
2024/03/02 01:03:22;;;;;;;6.93;3.10;;;7.30;67.80;;;;;;4994470;28;20477;-66
2024/03/02 01:05:49;;;;;;;6.77;3.80;;;7.20;67.80;;;;;;5006983;28;20457;-66
2024/03/02 01:08:16;;;;;;;6.80;3.50;;;7.20;67.80;;;;;;4998268;28;20461;-66
2024/03/02 01:10:43;;;;;;;8.83;3.93;;;7.10;68.70;;;;;;5006153;28;20499;-67
2024/03/02 01:13:11;;;;;;;5.73;3.83;;;7.00;75.00;;;;;;5006930;28;20861;-67
2024/03/02 01:15:38;;;;;;;5.37;3.43;;;7.00;75.10;;;;;;4996966;28;20461;-66
2024/03/02 01:18:05;;;;;;;7.50;4.30;;;7.10;72.30;;;;;;5014011;28;20461;-66
2024/03/02 01:20:32;;;;;;;5.00;3.50;;;7.10;71.80;;;;;;4995515;28;20454;-67
2024/03/02 01:22:59;;;;;;;6.70;3.97;;;7.10;70.60;;;;;;5007483;28;20473;-67
2024/03/02 01:25:25;;;;;;;6.20;4.20;;;7.20;69.90;;;;;;4996153;28;20458;-67
2024/03/02 01:27:52;;;;;;;6.17;3.93;;;7.20;68.00;;;;;;4994020;28;20520;-67
2024/03/02 01:30:21;;;;;;;5.73;3.90;;;7.20;68.20;;;;;;4993800;28;21084;-66
2024/03/02 01:32:48;;;;;;;5.70;3.60;;;7.30;68.60;;;;;;5006125;28;20476;-66
2024/03/02 01:35:15;;;;;;;5.73;3.70;;;7.30;67.80;;;;;;5013233;28;20459;-66
2024/03/02 01:37:42;;;;;;;5.93;3.20;;;7.20;68.00;;;;;;5005288;28;20456;-66
2024/03/02 01:40:10;;;;;;;6.30;3.47;;;7.20;71.40;;;;;;5006489;28;20976;-66
2024/03/02 01:42:38;;;;;;;5.87;3.53;;;7.10;70.60;;;;;;4993745;28;20516;-67
2024/03/02 01:45:06;;;;;;;6.03;3.70;;;7.10;68.90;;;;;;5008050;28;20854;-67
2024/03/02 01:47:34;;;;;;;6.60;4.00;;;7.10;72.90;;;;;;4994826;28;20470;-67
2024/03/02 01:50:01;;;;;;;6.00;3.50;;;7.20;70.20;;;;;;4992981;28;20478;-67
2024/03/02 01:52:29;;;;;;;7.10;3.70;;;7.20;72.50;;;;;;5011000;28;20487;-66
2024/03/02 01:54:56;;;;;;;7.47;4.20;;;7.30;74.80;;;;;;5012963;28;20819;-67
2024/03/02 01:57:23;;;;;;;6.30;3.80;;;7.30;75.00;;;;;;5013254;28;20519;-66
2024/03/02 01:59:51;;;;;;;6.40;3.60;;;7.30;71.70;;;;;;5013455;28;20499;-67
2024/03/02 02:02:18;;;;;;;6.80;3.43;;;7.30;70.20;;;;;;4996586;28;20529;-66
2024/03/02 02:04:46;;;;;;;6.40;3.53;;;7.30;71.90;;;;;;5004719;28;20463;-67
2024/03/02 02:07:14;;;;;;;5.60;3.43;;;7.30;72.30;;;;;;5013104;28;20457;-66
2024/03/02 02:09:41;;;;;;;5.30;3.13;;;7.20;75.30;;;;;;5012885;28;20491;-67
2024/03/02 02:12:09;;;;;;;6.30;3.37;;;7.20;75.30;;;;;;5005940;28;20458;-67
2024/03/02 02:14:35;;;;;;;6.20;3.77;;;7.20;75.40;;;;;;4992714;28;20464;-66
2024/03/02 02:17:02;;;;;;;6.70;3.37;;;7.20;75.50;;;;;;4993179;28;20458;-66
2024/03/02 02:19:29;;;;;;;5.80;3.80;;;7.30;75.40;;;;;;4993172;28;20457;-66
2024/03/02 02:21:57;;;;;;;5.83;3.60;;;7.40;75.40;;;;;;4993458;28;20454;-67
2024/03/02 02:24:24;;;;;;;7.00;4.10;;;7.40;72.90;;;;;;5009782;28;20472;-66
2024/03/02 02:26:50;;;;;;;6.83;4.07;;;7.40;74.90;;;;;;5012729;28;20548;-67
2024/03/02 02:29:17;;;;;;;6.97;3.67;;;7.40;74.70;;;;;;5012445;28;20457;-65
2024/03/02 02:31:44;;;;;;;6.00;3.40;;;7.50;69.90;;;;;;5012626;28;20449;-67
2024/03/02 02:34:11;;;;;;;5.43;3.20;;;7.50;71.50;;;;;;5005118;28;20488;-66
2024/03/02 02:36:40;;;;;;;6.43;3.43;;;7.50;70.30;;;;;;4992790;28;20462;-67
2024/03/02 02:39:11;;;;;;;6.20;3.10;;;7.50;68.00;;;;;;4992905;28;20844;-66
2024/03/02 02:41:38;;;;;;;5.80;3.00;;;7.50;67.90;;;;;;5011881;28;20887;-67
2024/03/02 02:44:05;;;;;;;6.30;3.10;;;7.60;68.00;;;;;;5012357;28;20996;-66
2024/03/02 02:46:32;;;;;;;5.20;3.13;;;7.50;68.00;;;;;;5012496;28;20461;-66
2024/03/02 02:48:59;;;;;;;5.83;2.73;;;7.50;68.40;;;;;;5012570;28;20450;-66
2024/03/02 02:51:26;;;;;;;5.67;3.00;;;7.50;68.00;;;;;;5002973;28;20512;-66
2024/03/02 02:53:53;;;;;;;5.20;3.20;;;7.40;67.90;;;;;;4992220;28;20474;-66
2024/03/02 02:56:21;;;;;;;7.13;3.17;;;7.40;68.60;;;;;;5008999;28;20474;-66
2024/03/02 02:58:48;;;;;;;6.53;3.00;;;7.40;70.90;;;;;;5007146;28;20461;-67
2024/03/02 03:01:16;;;;;;;4.90;2.80;;;7.30;70.10;;;;;;5008163;28;20467;-67
2024/03/02 03:03:45;;;;;;;6.00;3.70;;;7.30;75.50;;;;;;5011798;28;20473;-66
2024/03/02 03:06:13;;;;;;;5.93;3.93;;;7.30;75.50;;;;;;5012178;28;20449;-67
2024/03/02 03:08:40;;;;;;;5.80;3.60;;;7.20;75.50;;;;;;5012003;28;20459;-66
2024/03/02 03:11:06;;;;;;;6.53;4.33;;;7.20;76.30;;;;;;5011942;28;20503;-67
2024/03/02 03:13:35;;;;;;;7.30;4.97;;;7.10;75.40;;;;;;5001901;28;20486;-66
2024/03/02 03:16:02;;;;;;;6.60;4.97;;;7.20;75.50;;;;;;4992052;28;20466;-67
2024/03/02 03:18:30;;;;;;;5.90;4.57;;;7.20;75.50;;;;;;5008928;28;20453;-66
2024/03/02 03:20:56;;;;;;;6.80;4.30;;;7.20;75.50;;;;;;4992651;28;20446;-66
2024/03/02 03:23:23;;;;;;;6.27;4.80;;;7.20;75.50;;;;;;4992528;28;20485;-66
2024/03/02 03:25:50;;;;;;;5.80;4.30;;;7.20;75.60;;;;;;4996260;28;20454;-66
2024/03/02 03:28:17;;;;;;;6.83;4.03;;;7.30;75.50;;;;;;5012068;28;20465;-67
2024/03/02 03:30:45;;;;;;;5.70;4.70;;;7.20;75.50;;;;;;5003866;28;21012;-67
2024/03/02 03:33:12;;;;;;;5.10;3.87;;;7.20;75.50;;;;;;5011826;28;20483;-66
2024/03/02 03:35:39;;;;;;;5.73;5.13;;;7.20;75.50;;;;;;5011611;28;20452;-66
2024/03/02 03:38:06;;;;;;;7.33;5.53;;;7.20;75.50;;;;;;5012182;28;20453;-66
2024/03/02 03:40:33;;;;;;;5.93;5.30;;;7.20;75.50;;;;;;4995573;28;20458;-66
2024/03/02 03:43:00;;;;;;;6.20;5.50;;;7.20;75.50;;;;;;5011930;28;20503;-66
2024/03/02 03:45:26;;;;;;;6.13;4.87;;;7.20;75.50;;;;;;5003443;28;20453;-66
2024/03/02 03:47:55;;;;;;;6.60;4.60;;;7.20;75.50;;;;;;5012043;28;20455;-67
2024/03/02 03:50:22;;;;;;;5.97;4.00;;;7.30;75.60;;;;;;5011760;28;21058;-66
2024/03/02 03:52:49;;;;;;;5.87;2.90;;;7.60;75.70;;;;;;5011566;28;20480;-66
2024/03/02 03:55:15;;;;;;;5.90;2.47;;;8.00;68.40;;;;;;5011576;28;20453;-66
2024/03/02 03:57:42;;;;;;;5.80;2.17;;;8.10;65.60;;;;;;5011890;28;20529;-67
2024/03/02 04:00:11;;;;;;;5.17;2.23;;;8.30;60.50;;;;;;5011738;28;20463;-67
2024/03/02 04:02:38;;;;;;;4.50;1.70;;;8.30;60.50;;;;;;5009065;28;20486;-67
2024/03/02 04:05:08;;;;;;;5.53;1.80;;;8.30;60.50;;;;;;4991669;28;20941;-66
2024/03/02 04:07:39;;;;;;;7.00;1.73;;;8.30;60.50;;;;;;4992172;28;20561;-66
2024/03/02 04:10:08;;;;;;;5.00;1.70;;;8.20;60.40;;;;;;4992106;28;20482;-66
2024/03/02 04:12:36;;;;;;;5.27;2.13;;;8.30;60.50;;;;;;4994323;28;21064;-67
2024/03/02 04:15:04;;;;;;;5.60;1.60;;;8.30;60.50;;;;;;5009811;28;20507;-67
2024/03/02 04:17:33;;;;;;;4.63;1.77;;;8.40;60.60;;;;;;5015613;28;20460;-66
2024/03/02 04:20:00;;;;;;;5.00;1.93;;;8.30;60.50;;;;;;5015865;28;20453;-66
2024/03/02 04:22:28;;;;;;;4.97;2.00;;;8.40;60.60;;;;;;5013971;28;20985;-66
2024/03/02 04:24:55;;;;;;;8.47;2.07;;;8.30;60.50;;;;;;5000865;28;20836;-66
2024/03/02 04:27:21;;;;;;;6.93;2.43;;;8.30;60.50;;;;;;5015235;28;20453;-66
2024/03/02 04:29:48;;;;;;;4.50;1.60;;;8.40;60.60;;;;;;5015270;28;20460;-67
2024/03/02 04:32:15;;;;;;;8.77;3.93;;;8.40;60.60;;;;;;5014702;28;20460;-66
2024/03/02 04:34:42;;;;;;;9.40;3.87;;;8.30;60.50;;;;;;5013928;28;20453;-66
2024/03/02 04:37:09;;;;;;;7.60;3.13;;;8.20;60.60;;;;;;5014711;28;20453;-67
2024/03/02 04:39:37;;;;;;;5.63;2.30;;;8.20;62.60;;;;;;5014868;28;20460;-66
2024/03/02 04:42:04;;;;;;;5.17;1.80;;;8.00;66.10;;;;;;5008430;28;20457;-66
2024/03/02 04:44:31;;;;;;;8.83;2.53;;;7.90;66.60;;;;;;5004573;28;20475;-67
2024/03/02 04:46:58;;;;;;;11.47;2.63;;;7.80;68.20;;;;;;5000596;28;20458;-65
2024/03/02 04:49:25;;;;;;;11.70;2.70;;;7.60;68.20;;;;;;4994711;28;20962;-66
2024/03/02 04:51:52;;;;;;;5.40;2.80;;;7.30;75.00;;;;;;4994698;28;21055;-66
2024/03/02 04:54:18;;;;;;;6.73;3.60;;;7.00;75.30;;;;;;4994339;28;20478;-66
2024/03/02 04:56:50;;;;;;;6.30;4.43;;;6.70;75.10;;;;;;5014338;28;20468;-66
2024/03/02 04:59:17;;;;;;;6.73;6.13;;;6.50;74.90;;;;;;5006249;28;20468;-66
2024/03/02 05:01:44;;;;;;;8.60;7.80;;;6.40;74.80;;;;;;5006091;28;20449;-67
2024/03/02 05:04:11;;;;;;;12.37;11.27;;;6.40;75.00;;;;;;5013691;28;20846;-67
2024/03/02 05:06:40;;;;;;;10.37;9.47;;;6.30;81.10;;;;;;5005973;28;20959;-67
2024/03/02 05:09:06;;;;;;;10.40;9.50;;;6.40;80.60;;;;;;5013973;28;20455;-66
2024/03/02 05:11:56;;;;;;;10.80;9.87;;;6.50;81.40;;;;;;5013995;28;20485;-66
2024/03/02 05:14:24;;;;;;;16.60;15.60;;;6.50;78.50;;;;;;5013541;28;20477;-66
2024/03/02 05:16:51;;;;;;;24.60;23.20;;;6.50;82.70;;;;;;5014071;28;20457;-67
2024/03/02 05:19:18;;;;;;;22.20;21.00;;;6.60;80.00;;;;;;4997477;28;20454;-66
2024/03/02 05:21:45;;;;;;;37.60;35.70;;;6.70;81.10;;;;;;4997971;28;20449;-67
2024/03/02 05:24:12;;;;;;;35.63;33.90;;;6.60;82.70;;;;;;5005884;28;20474;-67
2024/03/02 05:26:38;;;;;;;42.63;40.67;;;6.60;82.80;;;;;;5013134;28;20833;-66
2024/03/02 05:29:05;;;;;;;37.23;35.57;;;6.60;86.30;;;;;;5007475;28;20462;-66
2024/03/02 05:31:33;;;;;;;28.43;27.03;;;6.40;85.90;;;;;;4994020;28;20481;-66
2024/03/02 05:34:00;;;;;;;32.17;30.03;;;6.60;83.80;;;;;;4993722;28;20481;-67
2024/03/02 05:36:27;;;;;;;28.50;26.60;;;6.40;85.30;;;;;;5003943;28;20858;-66
2024/03/02 05:38:54;;;;;;;29.40;27.90;;;6.40;83.80;;;;;;5013892;28;20845;-66
2024/03/02 05:41:20;;;;;;;43.83;41.33;;;6.30;84.20;;;;;;5013227;28;20834;-66
2024/03/02 05:43:47;;;;;;;32.90;31.13;;;6.30;87.20;;;;;;5013124;28;20473;-66
2024/03/02 05:46:14;;;;;;;30.63;28.63;;;6.20;87.10;;;;;;4997729;28;20461;-67
2024/03/02 05:48:42;;;;;;;33.17;31.67;;;6.20;89.40;;;;;;4996791;28;20830;-66
2024/03/02 05:51:09;;;;;;;29.07;27.57;;;6.20;89.40;;;;;;5013131;28;20487;-66
2024/03/02 05:53:37;;;;;;;29.23;27.83;;;6.20;87.10;;;;;;5012817;28;20479;-66
2024/03/02 05:56:05;;;;;;;26.67;25.27;;;6.30;89.90;;;;;;5013118;28;20836;-66
2024/03/02 05:58:42;;;;;;;29.43;28.07;;;6.30;89.30;;;;;;4994740;28;20512;-67
2024/03/02 06:01:09;;;;;;;30.70;29.20;;;6.30;89.30;;;;;;5008827;28;20448;-66
2024/03/02 06:03:36;;;;;;;35.43;33.80;;;6.40;89.90;;;;;;5012976;28;20480;-66
2024/03/02 06:06:05;;;;;;;29.37;27.87;;;6.30;87.70;;;;;;4998277;28;20465;-66
2024/03/02 06:08:32;;;;;;;27.17;25.87;;;6.40;88.90;;;;;;4995420;28;20472;-66
2024/03/02 06:10:59;;;;;;;27.50;26.20;;;6.40;90.10;;;;;;5007461;28;20485;-66
2024/03/02 06:13:26;;;;;;;22.53;21.00;;;6.40;85.50;;;;;;5010528;28;20479;-67
2024/03/02 06:15:53;;;;;;;18.97;17.57;;;6.50;83.10;;;;;;4999748;28;20450;-67
2024/03/02 06:18:20;;;;;;;12.90;12.00;;;6.60;83.40;;;;;;5009672;28;20908;-67
2024/03/02 06:20:46;;;;;;;11.00;10.10;;;6.70;80.30;;;;;;5004407;28;20449;-66
2024/03/02 06:23:14;;;;;;;8.20;7.40;;;6.70;79.00;;;;;;5012927;28;20477;-67
2024/03/02 06:25:41;;;;;;;6.73;6.13;;;6.80;75.90;;;;;;5012211;28;20457;-67
2024/03/02 06:28:08;;;;;;;6.70;4.83;;;7.00;75.40;;;;;;5012742;28;20460;-66
2024/03/02 06:30:35;;;;;;;8.87;4.50;;;7.10;75.40;;;;;;5012535;28;20965;-67
2024/03/02 06:33:03;;;;;;;6.40;4.10;;;7.10;75.50;;;;;;5012335;28;21019;-66
2024/03/02 06:35:30;;;;;;;6.03;3.90;;;7.10;75.40;;;;;;5001919;28;20464;-66
2024/03/02 06:37:57;;;;;;;8.33;5.00;;;7.10;75.50;;;;;;4998342;28;20457;-67
2024/03/02 06:40:25;;;;;;;5.00;3.97;;;7.00;75.30;;;;;;5003736;28;20454;-67
2024/03/02 06:42:52;;;;;;;7.90;3.80;;;6.90;75.20;;;;;;4992850;28;20869;-66
2024/03/02 06:45:18;;;;;;;5.37;4.63;;;7.00;75.30;;;;;;4992133;28;20457;-67
2024/03/02 06:47:45;;;;;;;6.00;4.67;;;6.90;75.20;;;;;;4991806;28;20464;-66
2024/03/02 06:50:12;;;;;;;6.00;5.30;;;6.80;75.20;;;;;;4991315;28;20482;-66
2024/03/02 06:52:39;;;;;;;9.40;6.30;;;6.80;75.20;;;;;;5011680;28;20485;-67
2024/03/02 06:55:07;;;;;;;6.60;5.87;;;6.80;75.20;;;;;;4997301;28;20465;-67
2024/03/02 06:57:35;;;;;;;7.77;7.00;;;6.80;75.20;;;;;;5012339;28;20459;-67
2024/03/02 07:00:04;;;;;;;10.03;6.10;;;6.90;75.30;;;;;;5013701;28;20488;-65
2024/03/02 07:02:32;;;;;;;7.70;5.03;;;7.00;75.40;;;;;;5004696;28;20473;-67
2024/03/02 07:04:59;;;;;;;6.43;5.13;;;7.10;75.40;;;;;;5007283;28;20462;-66
2024/03/02 07:07:25;;;;;;;6.00;4.27;;;7.20;75.50;;;;;;5010128;28;20464;-67
2024/03/02 07:09:52;;;;;;;5.70;3.43;;;7.50;75.80;;;;;;5012708;28;20487;-66
2024/03/02 07:12:19;;;;;;;7.57;3.37;;;7.50;75.80;;;;;;5004609;28;20516;-65
2024/03/02 07:15:18;;;;;;;6.93;4.63;;;7.60;75.80;;;;;;5012930;28;20527;-67
2024/03/02 07:17:45;;;;;;;6.13;4.13;;;7.70;76.00;;;;;;5013853;28;20453;-65
2024/03/02 07:20:12;;;;;;;5.10;3.13;;;7.70;75.90;;;;;;5014718;28;20453;-67
2024/03/02 07:22:39;;;;;;;5.30;3.20;;;7.80;76.10;;;;;;5010505;28;20470;-66
2024/03/02 07:25:07;;;;;;;7.53;3.60;;;7.80;76.00;;;;;;5008826;28;20961;-67
2024/03/02 07:27:35;;;;;;;6.37;2.97;;;7.90;76.00;;;;;;5013823;28;20460;-67
2024/03/02 07:30:03;;;;;;;7.90;3.27;;;8.00;76.00;;;;;;5008986;28;20457;-67
2024/03/02 07:32:30;;;;;;;5.80;3.60;;;8.10;76.20;;;;;;4994391;28;20485;-67
2024/03/02 07:34:57;;;;;;;7.40;2.70;;;8.10;76.20;;;;;;4999577;28;20909;-67
2024/03/02 07:37:24;;;;;;;5.10;2.70;;;8.20;76.10;;;;;;5014160;28;20480;-67
2024/03/02 07:39:51;;;;;;;5.90;2.87;;;8.30;76.20;;;;;;5014401;28;20540;-67
2024/03/02 07:42:18;;;;;;;5.37;3.17;;;8.40;73.90;;;;;;5014540;28;20509;-66
2024/03/02 07:44:45;;;;;;;5.30;2.57;;;8.40;70.00;;;;;;5014241;28;20484;-67
2024/03/02 07:47:14;;;;;;;5.40;3.17;;;8.50;69.20;;;;;;5015352;28;20457;-67
2024/03/02 07:49:41;;;;;;;6.20;3.03;;;8.50;68.90;;;;;;5017476;28;20461;-67
2024/03/02 07:52:08;;;;;;;5.33;2.30;;;8.60;69.50;;;;;;5009715;28;20506;-67
2024/03/02 07:54:34;;;;;;;5.70;2.63;;;8.60;69.60;;;;;;4995358;28;20458;-66
2024/03/02 07:57:02;;;;;;;6.27;2.73;;;8.60;74.10;;;;;;4996309;28;20490;-67
2024/03/02 07:59:28;;;;;;;7.07;3.13;;;8.70;69.40;;;;;;4995674;28;20849;-67
2024/03/02 08:01:56;;;;;;;7.30;2.40;;;8.90;69.20;;;;;;5009048;28;20455;-67
2024/03/02 08:04:24;;;;;;;6.13;2.87;;;9.00;69.20;;;;;;5014969;28;20477;-68
2024/03/02 08:06:51;;;;;;;5.50;2.13;;;9.20;69.40;;;;;;5015348;28;20467;-67
2024/03/02 08:09:18;;;;;;;4.63;1.97;;;9.20;61.40;;;;;;5014965;28;20457;-66
2024/03/02 08:11:45;;;;;;;4.50;2.10;;;9.20;63.10;;;;;;5006905;28;20507;-67
2024/03/02 08:14:11;;;;;;;4.30;1.90;;;9.30;61.40;;;;;;5000520;28;20480;-66
2024/03/02 08:16:38;;;;;;;5.37;1.83;;;9.40;61.40;;;;;;4997624;28;20487;-67
2024/03/02 08:19:05;;;;;;;7.70;2.73;;;9.50;62.70;;;;;;5014029;28;20535;-67
2024/03/02 08:21:35;;;;;;;6.80;2.80;;;9.60;61.60;;;;;;5014640;28;20453;-67
2024/03/02 08:24:02;;;;;;;6.17;3.07;;;9.70;61.70;;;;;;5008051;28;20544;-67
2024/03/02 08:26:31;;;;;;;10.00;2.53;;;9.70;61.70;;;;;;5012087;28;20463;-67
2024/03/02 08:28:58;;;;;;;4.80;2.03;;;9.60;61.60;;;;;;5014156;28;20453;-71
2024/03/02 08:31:25;;;;;;;5.83;2.47;;;9.50;62.80;;;;;;5013866;28;20491;-66
2024/03/02 08:33:52;;;;;;;4.13;1.37;;;9.40;69.50;;;;;;5013740;28;20484;-67
2024/03/02 08:36:19;;;;;;;4.60;1.67;;;9.40;61.40;;;;;;5013652;28;20815;-67
2024/03/02 08:38:49;;;;;;;4.80;1.60;;;9.30;61.40;;;;;;5014140;28;20453;-66
2024/03/02 08:41:16;;;;;;;6.10;1.75;;;9.40;61.40;;;;;;5013532;28;20451;-67
2024/03/02 08:43:43;;;;;;;4.73;1.50;;;9.50;61.60;;;;;;4994771;28;20730;-67
2024/03/02 08:46:10;;;;;;;6.20;1.50;;;9.60;61.60;;;;;;5009747;28;20457;-66
2024/03/02 08:48:37;;;;;;;4.73;1.13;;;9.80;61.70;;;;;;5003190;28;20464;-66
2024/03/02 08:51:07;;;;;;;4.33;1.37;;;10.00;60.80;;;;;;5000826;28;20463;-66
2024/03/02 08:53:34;;;;;;;8.70;1.97;;;10.20;61.10;;;;;;5004758;28;20486;-66
2024/03/02 08:56:05;;;;;;;3.87;1.00;;;10.30;61.20;;;;;;5004457;28;20460;-67
2024/03/02 08:58:32;;;;;;;5.10;1.30;;;10.30;61.20;;;;;;5011776;28;20973;-65
2024/03/02 09:00:59;;;;;;;5.40;1.10;;;10.30;61.20;;;;;;5004168;28;20548;-66
2024/03/02 09:03:25;;;;;;;4.33;1.47;;;10.30;61.20;;;;;;5012861;28;20897;-66
2024/03/02 09:05:52;;;;;;;5.17;1.30;;;10.40;61.30;;;;;;5011676;28;20455;-66
2024/03/02 09:08:19;;;;;;;3.97;1.27;;;10.40;61.30;;;;;;5006037;28;20455;-67
2024/03/02 09:10:46;;;;;;;6.70;1.67;;;10.50;53.50;;;;;;5004594;28;20531;-67
2024/03/02 09:13:14;;;;;;;4.90;1.70;;;10.60;53.40;;;;;;5013571;28;20481;-67
2024/03/02 09:15:41;;;;;;;6.13;1.20;;;10.90;55.80;;;;;;5013272;28;20461;-66
2024/03/02 09:18:08;;;;;;;4.63;1.60;;;11.30;54.60;;;;;;5013590;28;20553;-67
2024/03/02 09:20:35;;;;;;;5.23;1.47;;;11.50;54.10;;;;;;5005683;28;20853;-67
2024/03/02 09:23:01;;;;;;;5.10;1.20;;;11.90;45.70;;;;;;5013401;28;20515;-64
2024/03/02 09:25:28;;;;;;;5.20;1.23;;;12.20;45.90;;;;;;5005079;28;20464;-64
2024/03/02 09:27:55;;;;;;;4.17;1.13;;;12.20;45.90;;;;;;5013600;28;20461;-64
2024/03/02 09:30:23;;;;;;;5.30;1.50;;;12.00;43.00;;;;;;5012941;28;20825;-64
2024/03/02 09:32:50;;;;;;;4.30;1.30;;;12.10;37.10;;;;;;5012369;28;20493;-64
2024/03/02 09:35:18;;;;;;;4.83;1.30;;;12.10;37.60;;;;;;5011020;28;20459;-67
2024/03/02 09:37:44;;;;;;;6.10;1.50;;;12.40;46.10;;;;;;5004618;28;20701;-69
2024/03/02 09:40:12;;;;;;;5.17;1.40;;;12.60;40.50;;;;;;5013024;28;20453;-67
2024/03/02 09:42:39;;;;;;;4.17;1.00;;;12.80;39.70;;;;;;4997061;28;20552;-67
2024/03/02 09:45:07;;;;;;;5.43;1.27;;;12.90;43.60;;;;;;5012267;28;20449;-66
2024/03/02 09:47:35;;;;;;;7.20;1.43;;;13.30;38.20;;;;;;5013304;28;20544;-67
2024/03/02 09:50:03;;;;;;;6.83;2.13;;;13.40;38.10;;;;;;5005624;28;20461;-66
2024/03/02 09:52:32;;;;;;;5.27;0.93;;;13.50;38.40;;;;;;5012956;28;20535;-67
2024/03/02 09:54:58;;;;;;;4.50;1.30;;;13.20;35.40;;;;;;5007351;28;20536;-67
2024/03/02 09:57:25;;;;;;;7.60;1.27;;;13.30;38.10;;;;;;5002384;28;20468;-67
2024/03/02 09:59:52;;;;;;;6.00;1.20;;;13.10;37.90;;;;;;5013046;28;20465;-67
2024/03/02 10:02:19;;;;;;;8.13;1.60;;;13.10;29.30;;;;;;5001529;28;20446;-66
2024/03/02 10:04:50;;;;;;;6.50;1.20;;;13.30;38.00;;;;;;4999082;28;20455;-67
2024/03/02 10:07:18;;;;;;;6.00;1.50;;;13.40;30.10;;;;;;5013217;28;20460;-67
2024/03/02 10:09:46;;;;;;;5.03;1.33;;;13.40;29.50;;;;;;5011785;28;20453;-67
2024/03/02 10:12:15;;;;;;;4.30;0.90;;;13.00;29.20;;;;;;5004295;28;20851;-67
2024/03/02 10:14:42;;;;;;;7.10;0.97;;;12.40;34.80;;;;;;5013016;28;20452;-67
2024/03/02 10:17:10;;;;;;;4.63;1.27;;;12.50;37.30;;;;;;5013059;28;20456;-70
2024/03/02 10:19:38;;;;;;;4.30;1.07;;;12.40;37.20;;;;;;5012830;28;20449;-70
2024/03/02 10:22:08;;;;;;;6.50;1.30;;;13.00;37.80;;;;;;5013148;28;20464;-70
2024/03/02 10:24:39;;;;;;;4.30;1.00;;;13.50;34.70;;;;;;5012453;28;20488;-69
2024/03/02 10:27:10;;;;;;;4.90;0.90;;;13.50;35.20;;;;;;5012845;28;20476;-69
2024/03/02 10:29:41;;;;;;;4.50;1.10;;;13.50;29.50;;;;;;5010503;28;20453;-71
2024/03/02 10:32:10;;;;;;;15.60;1.80;;;13.80;29.70;;;;;;5007703;28;20472;-67
2024/03/02 10:34:37;;;;;;;6.83;0.97;;;13.60;29.60;;;;;;5011951;28;20949;-67
2024/03/02 10:37:07;;;;;;;6.80;1.37;;;13.70;29.70;;;;;;5012345;28;20461;-67
2024/03/02 10:39:36;;;;;;;4.20;1.00;;;13.90;29.80;;;;;;5012117;28;20456;-67
2024/03/02 10:42:04;;;;;;;5.27;1.00;;;13.80;29.70;;;;;;4999670;28;20806;-69
2024/03/02 10:44:31;;;;;;;6.63;1.13;;;13.80;29.70;;;;;;5012113;28;20456;-66
2024/03/02 10:47:02;;;;;;;6.33;0.93;;;14.00;29.80;;;;;;5001853;28;20479;-69
2024/03/02 10:49:30;;;;;;;4.87;1.00;;;14.30;30.00;;;;;;5001613;28;20461;-67
2024/03/02 10:51:58;;;;;;;5.60;1.13;;;14.50;30.20;;;;;;5006157;28;20464;-69
2024/03/02 10:54:29;;;;;;;5.03;1.00;;;14.30;30.00;;;;;;5011729;28;20853;-67
2024/03/02 10:56:59;;;;;;;6.83;1.33;;;14.60;30.10;;;;;;5003746;28;20839;-67
2024/03/02 10:59:30;;;;;;;4.80;1.03;;;14.60;27.20;;;;;;5011846;28;20464;-67
2024/03/02 11:01:59;;;;;;;7.10;1.40;;;14.40;23.00;;;;;;5012306;28;20449;-67
2024/03/02 11:04:27;;;;;;;6.03;1.23;;;14.40;23.00;;;;;;5011717;28;20473;-67
2024/03/02 11:07:00;;;;;;;5.17;1.30;;;14.50;30.00;;;;;;5012403;28;20843;-66
2024/03/02 11:09:30;;;;;;;4.80;1.00;;;14.70;23.20;;;;;;5011706;28;20495;-66
2024/03/02 11:12:03;;;;;;;4.77;1.40;;;14.80;19.70;;;;;;5012451;28;20836;-68
2024/03/02 11:14:33;;;;;;;4.77;1.20;;;14.80;20.00;;;;;;5011998;28;20473;-68
2024/03/02 11:17:01;;;;;;;5.13;1.57;;;14.60;15.80;;;;;;5012441;28;20515;-68
2024/03/02 11:19:28;;;;;;;7.47;1.67;;;15.00;16.20;;;;;;5011401;28;20834;-68
2024/03/02 11:21:55;;;;;;;8.50;2.13;;;15.50;16.50;;;;;;5016267;28;20248;-66
2024/03/02 11:24:33;;;;;;;10.87;2.70;;;15.60;16.60;;;;;;5015638;28;20540;-69
2024/03/02 11:27:00;;;;;;;6.40;1.43;;;15.50;16.50;;;;;;5016330;28;20467;-66
2024/03/02 11:29:45;;;;;;;6.10;1.30;;;15.40;16.40;;;;;;5016427;28;20458;-66
2024/03/02 11:32:17;;;;;;;9.00;1.27;;;15.60;16.50;;;;;;5016095;28;20449;-69
2024/03/02 11:34:46;;;;;;;5.17;1.13;;;15.50;16.40;;;;;;5015681;28;20865;-68
2024/03/02 11:37:13;;;;;;;6.30;1.20;;;15.80;16.70;;;;;;5016077;28;20449;-68
2024/03/02 11:39:42;;;;;;;6.43;1.60;;;15.70;16.60;;;;;;5015162;28;20471;-67
2024/03/02 11:42:10;;;;;;;7.47;2.13;;;15.70;16.60;;;;;;5011241;28;20448;-68
2024/03/02 11:44:38;;;;;;;4.33;1.07;;;16.00;16.60;;;;;;5015009;28;20976;-67
2024/03/02 11:47:08;;;;;;;5.23;1.10;;;16.10;16.90;;;;;;5015793;28;20452;-68
2024/03/02 11:49:39;;;;;;;4.87;1.43;;;16.20;9.60;;;;;;5015654;28;20444;-68
2024/03/02 11:52:07;;;;;;;7.70;1.83;;;16.00;9.40;;;;;;5015803;28;20444;-68
2024/03/02 11:54:35;;;;;;;4.50;1.13;;;16.00;9.30;;;;;;5015652;28;20871;-70
2024/03/02 11:57:05;;;;;;;5.20;1.20;;;16.00;9.40;;;;;;5015715;28;20451;-70
2024/03/02 11:59:31;;;;;;;5.67;1.23;;;16.00;9.40;;;;;;5015412;28;20559;-69
2024/03/02 12:01:59;;;;;;;4.90;1.33;;;15.40;16.30;;;;;;5011014;28;20445;-68
2024/03/02 12:04:27;;;;;;;4.70;1.27;;;14.90;15.50;;;;;;5014954;28;20472;-69
2024/03/02 12:06:59;;;;;;;4.67;1.23;;;14.40;15.70;;;;;;5015129;28;20812;-68
2024/03/02 12:09:27;;;;;;;5.77;1.37;;;14.20;15.50;;;;;;5015512;28;20953;-70
2024/03/02 12:12:05;;;;;;;8.50;1.50;;;14.10;15.50;;;;;;5005357;28;20532;-69
2024/03/02 12:14:32;;;;;;;5.20;1.20;;;14.10;15.50;;;;;;5000485;28;20824;-68
2024/03/02 12:16:59;;;;;;;5.70;1.07;;;14.20;15.60;;;;;;5004941;28;20460;-71
2024/03/02 12:19:26;;;;;;;5.83;1.90;;;14.20;15.50;;;;;;5006121;28;20528;-70
2024/03/02 12:21:53;;;;;;;5.77;1.87;;;14.30;15.60;;;;;;5010858;28;20889;-70
2024/03/02 12:24:20;;;;;;;7.03;1.20;;;14.20;15.60;;;;;;5000315;28;20524;-70
2024/03/02 12:26:48;;;;;;;4.93;1.40;;;14.30;16.30;;;;;;5006067;28;20453;-69
2024/03/02 12:29:16;;;;;;;4.50;1.20;;;14.30;15.60;;;;;;5011469;28;20544;-68
2024/03/02 12:31:45;;;;;;;4.70;1.40;;;14.30;17.00;;;;;;5014509;28;20518;-68
2024/03/02 12:34:13;;;;;;;5.77;1.40;;;14.60;19.30;;;;;;4998071;28;20869;-69
2024/03/02 12:36:41;;;;;;;4.93;1.10;;;14.60;16.60;;;;;;5006291;28;20457;-69
2024/03/02 12:39:09;;;;;;;4.37;1.27;;;14.70;16.80;;;;;;5014219;28;20496;-69
2024/03/02 12:41:37;;;;;;;6.67;1.53;;;14.60;15.80;;;;;;5014667;28;20461;-70
2024/03/02 12:44:04;;;;;;;4.67;1.13;;;14.50;15.80;;;;;;5014126;28;20988;-69
2024/03/02 12:46:33;;;;;;;7.00;2.00;;;14.50;15.80;;;;;;5014549;28;20456;-70
2024/03/02 12:49:08;;;;;;;4.97;1.70;;;14.50;17.40;;;;;;5014752;28;20453;-70
2024/03/02 12:51:35;;;;;;;5.63;1.90;;;14.50;16.20;;;;;;5015575;28;20533;-70
2024/03/02 12:54:03;;;;;;;5.57;1.70;;;14.50;17.10;;;;;;5014181;28;20574;-70
2024/03/02 12:56:30;;;;;;;4.70;1.47;;;14.30;16.00;;;;;;5014400;28;20449;-69